Time;durP1;ratioP1;P1;durP2;ratioP2;P2;SDS_P1;SDS_P2;PMS_P1;PMS_P2;Temp;Humidity;BMP_temperature;BMP_pressure;BME280_temperature;BME280_humidity;BME280_pressure;Samples;Min_cycle;Max_cycle;Signal;HPM_P1;HPM_P2
2023/10/23 00:00:29;;;;;;;1.85;0.57;;;13.10;59.30;;;;;;2280938;55;21082;-66
2023/10/23 00:02:56;;;;;;;1.23;0.37;;;13.10;59.30;;;;;;2514178;55;20950;-66
2023/10/23 00:05:23;;;;;;;1.98;0.57;;;13.10;59.40;;;;;;2280620;56;21459;-66
2023/10/23 00:07:50;;;;;;;2.85;0.55;;;13.10;59.40;;;;;;2280857;55;20957;-66
2023/10/23 00:10:16;;;;;;;1.35;0.40;;;13.00;59.30;;;;;;2282965;56;21023;-66
2023/10/23 00:12:42;;;;;;;1.55;0.43;;;12.90;59.30;;;;;;2506119;54;21334;-66
2023/10/23 00:15:09;;;;;;;1.83;0.50;;;12.90;59.30;;;;;;2281850;55;20946;-66
2023/10/23 00:17:35;;;;;;;1.67;0.47;;;12.90;59.40;;;;;;2513935;55;20982;-66
2023/10/23 00:20:02;;;;;;;1.35;0.50;;;12.90;59.40;;;;;;2281446;55;21006;-66
2023/10/23 00:22:29;;;;;;;1.83;0.40;;;12.80;59.30;;;;;;2514187;55;20962;-66
2023/10/23 00:24:56;;;;;;;1.30;0.57;;;12.80;59.30;;;;;;2514152;55;20997;-66
2023/10/23 00:27:22;;;;;;;1.27;0.40;;;12.70;59.30;;;;;;2281202;55;21018;-66
2023/10/23 00:29:49;;;;;;;0.60;0.30;;;12.70;59.40;;;;;;2281453;55;20986;-66
2023/10/23 00:32:15;;;;;;;1.08;0.30;;;12.70;59.50;;;;;;2281128;55;20942;-67
2023/10/23 00:34:42;;;;;;;0.95;0.32;;;12.60;59.50;;;;;;2514254;55;21491;-66
2023/10/23 00:37:11;;;;;;;1.75;0.40;;;12.60;59.50;;;;;;2281528;55;20954;-66
2023/10/23 00:39:37;;;;;;;1.45;0.50;;;12.60;59.50;;;;;;2514065;55;21006;-66
2023/10/23 00:42:04;;;;;;;2.05;0.52;;;12.60;59.60;;;;;;2281224;56;21795;-67
2023/10/23 00:44:30;;;;;;;1.58;0.40;;;12.50;59.50;;;;;;2511101;55;20954;-66
2023/10/23 00:46:57;;;;;;;1.65;0.50;;;12.50;59.60;;;;;;2512218;55;21780;-66
2023/10/23 00:49:26;;;;;;;1.33;0.50;;;12.50;59.60;;;;;;2280635;56;20977;-67
2023/10/23 00:51:55;;;;;;;1.20;0.50;;;12.40;59.50;;;;;;2280437;55;20950;-66
2023/10/23 00:54:21;;;;;;;1.70;0.62;;;12.40;59.50;;;;;;2504556;54;20943;-66
2023/10/23 00:56:48;;;;;;;2.03;0.62;;;12.40;59.60;;;;;;2280062;55;20926;-67
2023/10/23 00:59:14;;;;;;;1.50;0.62;;;12.30;59.50;;;;;;2504096;54;20979;-66
2023/10/23 01:01:41;;;;;;;1.37;0.50;;;12.30;59.50;;;;;;2279718;55;21045;-66
2023/10/23 01:04:07;;;;;;;1.85;0.62;;;12.30;59.50;;;;;;2281058;56;20969;-66
2023/10/23 01:06:33;;;;;;;1.92;0.50;;;12.20;59.40;;;;;;2280113;56;20934;-66
2023/10/23 01:09:00;;;;;;;1.40;0.60;;;12.20;59.40;;;;;;2513222;55;20938;-66
2023/10/23 01:11:26;;;;;;;2.65;0.68;;;12.20;59.50;;;;;;2280186;55;20994;-66
2023/10/23 01:13:52;;;;;;;2.72;0.65;;;12.20;59.50;;;;;;2513166;55;21022;-66
2023/10/23 01:16:19;;;;;;;1.45;0.60;;;12.10;59.50;;;;;;2512529;55;21025;-66
2023/10/23 01:18:45;;;;;;;1.40;0.60;;;12.10;59.50;;;;;;2513430;54;21026;-66
2023/10/23 01:21:12;;;;;;;1.73;0.40;;;12.00;59.40;;;;;;2280652;56;20969;-66
2023/10/23 01:23:38;;;;;;;1.83;0.60;;;12.00;59.50;;;;;;2280297;55;20954;-66
2023/10/23 01:26:04;;;;;;;2.70;0.52;;;12.00;59.50;;;;;;2513362;55;20974;-66
2023/10/23 01:28:31;;;;;;;1.83;0.70;;;12.00;59.50;;;;;;2280001;55;20953;-66
2023/10/23 01:31:00;;;;;;;1.33;0.55;;;11.90;59.50;;;;;;2280108;55;22075;-66
2023/10/23 01:33:30;;;;;;;1.23;0.50;;;11.90;59.50;;;;;;2280757;56;20946;-66
2023/10/23 01:35:56;;;;;;;1.90;0.60;;;11.90;59.50;;;;;;2513201;55;21030;-66
2023/10/23 01:38:24;;;;;;;1.70;0.55;;;11.80;59.40;;;;;;2280721;55;21005;-66
2023/10/23 01:40:50;;;;;;;1.15;0.40;;;11.80;59.50;;;;;;2513290;55;20997;-66
2023/10/23 01:43:18;;;;;;;1.08;0.43;;;11.80;59.50;;;;;;2279852;55;20991;-66
2023/10/23 01:45:44;;;;;;;1.65;0.50;;;11.70;59.40;;;;;;2275813;55;21033;-66
2023/10/23 01:48:11;;;;;;;2.37;0.75;;;11.70;59.50;;;;;;2281045;56;20949;-65
2023/10/23 01:50:38;;;;;;;0.73;0.40;;;11.70;59.50;;;;;;2513787;55;21514;-66
2023/10/23 01:53:06;;;;;;;2.15;0.88;;;11.70;59.60;;;;;;2280324;56;21045;-66
2023/10/23 01:55:35;;;;;;;1.37;0.50;;;11.60;59.50;;;;;;2279934;55;20926;-66
2023/10/23 01:58:01;;;;;;;0.77;0.30;;;11.60;59.50;;;;;;2279849;55;21265;-66
2023/10/23 02:00:28;;;;;;;1.25;0.47;;;11.50;59.50;;;;;;2280299;56;20942;-66
2023/10/23 02:02:55;;;;;;;3.15;0.60;;;11.50;59.50;;;;;;2513018;55;21073;-66
2023/10/23 02:05:25;;;;;;;1.75;0.50;;;11.50;59.50;;;;;;2279931;56;20967;-66
2023/10/23 02:08:05;;;;;;;1.52;0.60;;;11.50;59.50;;;;;;2276317;55;20982;-66
2023/10/23 02:10:36;;;;;;;1.50;0.55;;;11.40;59.50;;;;;;2280579;55;20961;-66
2023/10/23 02:13:02;;;;;;;2.03;0.60;;;11.40;59.60;;;;;;2512801;55;21025;-66
2023/10/23 02:15:29;;;;;;;1.25;0.50;;;11.40;59.70;;;;;;2513133;55;21362;-66
2023/10/23 02:17:55;;;;;;;1.65;0.52;;;11.30;59.60;;;;;;2278638;56;21003;-67
2023/10/23 02:20:22;;;;;;;1.55;0.50;;;11.30;59.60;;;;;;2278080;54;21431;-66
2023/10/23 02:22:48;;;;;;;1.92;0.50;;;11.30;59.60;;;;;;2279937;56;21479;-66
2023/10/23 02:25:14;;;;;;;0.88;0.40;;;11.30;59.60;;;;;;2280413;55;21243;-66
2023/10/23 02:27:42;;;;;;;1.58;0.50;;;11.20;59.50;;;;;;2513613;55;21034;-66
2023/10/23 02:30:09;;;;;;;1.65;0.52;;;11.20;59.60;;;;;;2513213;55;20971;-66
2023/10/23 02:32:35;;;;;;;2.60;0.55;;;11.20;59.60;;;;;;2280005;56;21003;-66
2023/10/23 02:35:04;;;;;;;1.20;0.50;;;11.20;59.70;;;;;;2513318;55;21386;-66
2023/10/23 02:37:30;;;;;;;1.65;0.60;;;11.20;59.70;;;;;;2280542;56;21009;-66
2023/10/23 02:39:57;;;;;;;1.60;0.50;;;11.10;59.60;;;;;;2513329;55;20999;-66
2023/10/23 02:42:23;;;;;;;1.67;0.50;;;11.10;59.60;;;;;;2280510;56;21029;-66
2023/10/23 02:44:49;;;;;;;2.67;0.50;;;11.10;59.60;;;;;;2513307;54;21010;-66
2023/10/23 02:47:16;;;;;;;2.85;0.60;;;11.10;60.20;;;;;;2513867;55;21147;-66
2023/10/23 02:49:44;;;;;;;0.90;0.45;;;11.00;59.60;;;;;;2280501;56;21018;-66
2023/10/23 02:52:11;;;;;;;1.55;0.60;;;11.00;59.70;;;;;;2513265;55;20950;-66
2023/10/23 02:54:37;;;;;;;1.23;0.50;;;11.00;59.80;;;;;;2280930;56;20962;-69
2023/10/23 02:57:03;;;;;;;1.55;0.60;;;11.00;59.80;;;;;;2281399;55;20951;-66
2023/10/23 02:59:33;;;;;;;1.50;0.60;;;10.90;59.90;;;;;;2280713;55;20946;-66
2023/10/23 03:01:59;;;;;;;1.95;0.90;;;10.90;60.50;;;;;;2513875;55;20990;-66
2023/10/23 03:04:26;;;;;;;1.52;0.50;;;10.90;59.80;;;;;;2513475;55;20994;-66
2023/10/23 03:06:53;;;;;;;1.35;0.40;;;10.90;59.80;;;;;;2280956;55;21002;-66
2023/10/23 03:09:20;;;;;;;1.45;0.50;;;10.90;59.80;;;;;;2281448;55;20997;-66
2023/10/23 03:11:46;;;;;;;0.57;0.37;;;10.90;59.80;;;;;;2281245;55;20962;-66
2023/10/23 03:14:13;;;;;;;3.28;0.50;;;10.80;59.60;;;;;;2513346;55;21193;-66
2023/10/23 03:16:40;;;;;;;1.42;0.60;;;10.80;59.70;;;;;;2280980;56;21010;-66
2023/10/23 03:19:06;;;;;;;1.08;0.40;;;10.80;59.80;;;;;;2514206;55;21447;-66
2023/10/23 03:21:32;;;;;;;1.60;0.52;;;10.80;59.90;;;;;;2281166;55;21041;-66
2023/10/23 03:24:02;;;;;;;2.67;0.70;;;10.70;59.90;;;;;;2281013;56;21542;-66
2023/10/23 03:26:28;;;;;;;1.08;0.43;;;10.70;60.00;;;;;;2513379;54;20998;-66
2023/10/23 03:28:55;;;;;;;1.23;0.40;;;10.80;60.00;;;;;;2513645;54;22460;-66
2023/10/23 03:31:22;;;;;;;1.50;0.55;;;10.70;59.90;;;;;;2281234;56;21025;-66
2023/10/23 03:33:51;;;;;;;3.08;0.68;;;10.70;59.90;;;;;;2514092;55;21016;-66
2023/10/23 03:36:18;;;;;;;1.67;0.43;;;10.70;59.90;;;;;;2513315;55;21010;-66
2023/10/23 03:38:44;;;;;;;1.20;0.50;;;10.70;59.80;;;;;;2281209;55;21010;-66
2023/10/23 03:41:10;;;;;;;0.77;0.32;;;10.70;59.80;;;;;;2513912;55;21276;-65
2023/10/23 03:43:37;;;;;;;1.10;0.40;;;10.60;59.80;;;;;;2514245;55;20930;-65
2023/10/23 03:46:03;;;;;;;3.00;0.50;;;10.60;60.00;;;;;;2514629;55;21027;-65
2023/10/23 03:48:30;;;;;;;1.60;0.50;;;10.60;60.00;;;;;;2280776;56;21013;-66
2023/10/23 03:50:59;;;;;;;2.15;0.60;;;10.60;60.00;;;;;;2513194;55;21005;-65
2023/10/23 03:53:26;;;;;;;1.00;0.50;;;10.60;60.00;;;;;;2280015;56;20977;-66
2023/10/23 03:55:52;;;;;;;2.08;0.70;;;10.50;59.80;;;;;;2513251;55;21447;-66
2023/10/23 03:58:18;;;;;;;1.45;0.60;;;10.50;59.90;;;;;;2280908;55;20981;-66
2023/10/23 04:00:44;;;;;;;0.85;0.35;;;10.50;59.90;;;;;;2280208;55;21009;-66
2023/10/23 04:03:11;;;;;;;1.40;0.52;;;10.50;60.00;;;;;;2281523;55;20990;-66
2023/10/23 04:05:40;;;;;;;2.35;0.50;;;10.50;59.90;;;;;;2514108;55;20950;-65
2023/10/23 04:08:07;;;;;;;2.75;0.45;;;10.40;59.80;;;;;;2281081;56;21092;-66
2023/10/23 04:10:36;;;;;;;1.75;0.50;;;10.50;60.00;;;;;;2509638;55;20963;-66
2023/10/23 04:13:02;;;;;;;2.47;0.60;;;10.40;59.90;;;;;;2276829;54;21034;-65
2023/10/23 04:15:28;;;;;;;3.53;0.68;;;10.40;60.00;;;;;;2281424;55;21025;-66
2023/10/23 04:17:56;;;;;;;2.67;0.80;;;10.40;60.00;;;;;;2514834;55;21869;-66
2023/10/23 04:20:22;;;;;;;1.58;0.60;;;10.40;60.00;;;;;;2514197;55;20962;-66
2023/10/23 04:22:48;;;;;;;2.25;0.70;;;10.40;60.00;;;;;;2281048;55;20986;-65
2023/10/23 04:25:15;;;;;;;1.92;0.65;;;10.30;59.90;;;;;;2280782;56;21045;-66
2023/10/23 04:27:41;;;;;;;1.20;0.45;;;10.30;60.00;;;;;;2514705;55;20957;-66
2023/10/23 04:30:08;;;;;;;1.15;0.50;;;10.30;60.00;;;;;;2281031;56;20974;-66
2023/10/23 04:32:35;;;;;;;0.62;0.40;;;10.30;60.00;;;;;;2281261;56;21074;-65
2023/10/23 04:35:03;;;;;;;2.17;0.70;;;10.30;60.00;;;;;;2514226;55;21038;-66
2023/10/23 04:37:29;;;;;;;1.48;0.60;;;10.30;60.00;;;;;;2281554;56;20946;-66
2023/10/23 04:39:55;;;;;;;2.03;0.75;;;10.30;60.00;;;;;;2510255;55;20991;-66
2023/10/23 04:42:22;;;;;;;3.80;0.60;;;10.20;59.90;;;;;;2508234;55;21550;-66
2023/10/23 04:44:50;;;;;;;1.75;0.65;;;10.20;59.90;;;;;;2281282;55;21006;-65
2023/10/23 04:47:16;;;;;;;1.12;0.52;;;10.20;59.90;;;;;;2513655;55;21408;-66
2023/10/23 04:49:45;;;;;;;1.55;0.43;;;10.10;59.80;;;;;;2281645;55;20970;-66
2023/10/23 04:52:12;;;;;;;1.33;0.50;;;10.20;59.90;;;;;;2280837;56;20965;-66
2023/10/23 04:54:38;;;;;;;2.05;0.77;;;10.10;59.90;;;;;;2514102;55;21011;-66
2023/10/23 04:57:05;;;;;;;2.03;0.88;;;10.10;59.90;;;;;;2514246;55;21054;-65
2023/10/23 04:59:34;;;;;;;1.35;0.65;;;10.10;59.90;;;;;;2281613;55;22015;-66
2023/10/23 05:02:02;;;;;;;2.30;0.75;;;10.10;60.00;;;;;;2513690;54;20958;-66
2023/10/23 05:04:30;;;;;;;2.42;0.75;;;10.10;60.10;;;;;;2513772;55;20994;-65
2023/10/23 05:06:57;;;;;;;2.12;0.80;;;10.00;60.10;;;;;;2281749;55;21208;-65
2023/10/23 05:09:23;;;;;;;1.95;0.90;;;10.00;60.20;;;;;;2280549;55;21360;-66
2023/10/23 05:11:49;;;;;;;1.75;0.80;;;10.00;60.10;;;;;;2277325;55;21011;-66
2023/10/23 05:14:17;;;;;;;2.35;0.90;;;10.00;60.20;;;;;;2507978;55;21395;-66
2023/10/23 05:16:43;;;;;;;2.87;0.88;;;10.00;60.30;;;;;;2281273;55;20959;-66
2023/10/23 05:19:13;;;;;;;2.10;0.90;;;10.00;60.40;;;;;;2281536;56;21439;-66
2023/10/23 05:21:43;;;;;;;3.08;0.93;;;10.00;60.50;;;;;;2479778;55;21042;-66
2023/10/23 05:24:13;;;;;;;2.95;0.88;;;10.00;60.40;;;;;;2281372;56;21408;-66
2023/10/23 05:26:39;;;;;;;2.45;0.75;;;10.00;60.40;;;;;;2504506;55;20964;-66
2023/10/23 05:29:08;;;;;;;1.98;0.85;;;10.00;60.30;;;;;;2290493;55;21133;-66
2023/10/23 05:31:34;;;;;;;3.70;0.90;;;10.00;60.30;;;;;;2281215;55;20977;-66
2023/10/23 05:34:03;;;;;;;1.85;0.82;;;10.00;60.40;;;;;;2513568;55;21077;-66
2023/10/23 05:36:29;;;;;;;1.45;0.70;;;10.00;60.40;;;;;;2280971;56;20969;-66
2023/10/23 05:38:57;;;;;;;2.05;0.75;;;9.90;61.40;;;;;;2280729;55;20961;-66
2023/10/23 05:41:23;;;;;;;1.87;0.75;;;10.00;60.40;;;;;;2280633;55;20974;-66
2023/10/23 05:43:50;;;;;;;4.57;0.80;;;9.90;61.40;;;;;;2514113;55;20957;-66
2023/10/23 05:46:20;;;;;;;2.05;0.85;;;9.90;61.50;;;;;;2514083;55;20978;-66
2023/10/23 05:48:48;;;;;;;2.10;0.70;;;9.90;61.60;;;;;;2514329;55;20918;-66
2023/10/23 05:51:15;;;;;;;2.92;0.82;;;9.90;61.60;;;;;;2513674;55;21471;-66
2023/10/23 05:53:41;;;;;;;2.25;0.93;;;9.90;61.70;;;;;;2514526;55;21376;-66
2023/10/23 05:56:07;;;;;;;3.37;1.10;;;9.90;61.70;;;;;;2281440;55;20998;-66
2023/10/23 05:58:34;;;;;;;9.38;1.33;;;9.90;61.80;;;;;;2281356;55;20974;-66
2023/10/23 06:01:08;;;;;;;2.55;1.05;;;9.90;62.00;;;;;;2513570;55;20998;-66
2023/10/23 06:03:34;;;;;;;2.30;1.08;;;9.90;62.10;;;;;;2280804;55;20962;-66
2023/10/23 06:06:01;;;;;;;3.53;1.17;;;9.90;62.10;;;;;;2281163;56;21001;-66
2023/10/23 06:08:27;;;;;;;4.10;1.60;;;9.90;62.10;;;;;;2281392;55;21091;-66
2023/10/23 06:10:54;;;;;;;3.60;1.85;;;9.90;62.20;;;;;;2281291;55;20934;-65
2023/10/23 06:13:23;;;;;;;3.95;2.20;;;10.00;61.20;;;;;;2281329;56;20958;-66
2023/10/23 06:15:50;;;;;;;4.18;2.08;;;10.00;61.20;;;;;;2281284;56;21479;-66
2023/10/23 06:18:17;;;;;;;5.12;2.15;;;10.00;61.20;;;;;;2513931;55;20958;-66
2023/10/23 06:20:46;;;;;;;4.37;1.98;;;10.00;61.30;;;;;;2509969;54;20999;-66
2023/10/23 06:23:12;;;;;;;5.22;2.12;;;10.00;61.30;;;;;;2485015;54;21027;-66
2023/10/23 06:25:39;;;;;;;3.85;1.75;;;10.00;61.30;;;;;;2274230;55;20918;-66
2023/10/23 06:28:06;;;;;;;4.32;1.80;;;10.10;61.50;;;;;;2277864;55;21745;-66
2023/10/23 06:30:35;;;;;;;4.32;2.10;;;10.10;61.50;;;;;;2280651;55;21069;-66
2023/10/23 06:33:01;;;;;;;4.15;2.03;;;10.10;61.60;;;;;;2514531;55;20969;-66
2023/10/23 06:35:27;;;;;;;3.42;1.95;;;10.10;61.60;;;;;;2281056;56;21036;-66
2023/10/23 06:37:53;;;;;;;3.85;1.95;;;10.10;61.70;;;;;;2514439;55;20958;-66
2023/10/23 06:40:20;;;;;;;4.20;2.22;;;10.10;61.70;;;;;;2513902;55;21957;-66
2023/10/23 06:42:46;;;;;;;4.68;2.20;;;10.20;61.90;;;;;;2281870;56;21902;-65
2023/10/23 06:45:13;;;;;;;4.90;2.45;;;10.20;61.90;;;;;;2281085;55;20950;-66
2023/10/23 06:47:41;;;;;;;7.40;1.75;;;10.20;62.00;;;;;;2514879;55;21443;-66
2023/10/23 06:50:10;;;;;;;3.33;2.05;;;10.30;62.10;;;;;;2281708;55;21722;-66
2023/10/23 06:52:38;;;;;;;4.40;2.30;;;10.30;62.10;;;;;;2514544;55;20914;-66
2023/10/23 06:55:08;;;;;;;4.82;2.15;;;10.30;62.10;;;;;;2280783;56;21027;-66
2023/10/23 06:57:35;;;;;;;4.12;1.80;;;10.40;62.20;;;;;;2281212;55;20995;-66
2023/10/23 07:00:01;;;;;;;3.50;1.95;;;10.40;62.10;;;;;;2281124;56;20965;-66
2023/10/23 07:02:30;;;;;;;3.83;1.90;;;10.40;62.10;;;;;;2280844;56;21095;-66
2023/10/23 07:04:58;;;;;;;3.90;2.10;;;10.50;62.30;;;;;;2514160;55;21783;-66
2023/10/23 07:07:24;;;;;;;4.15;2.10;;;10.50;62.30;;;;;;2277351;55;20947;-66
2023/10/23 07:09:58;;;;;;;4.07;1.80;;;10.50;62.30;;;;;;2280410;55;20934;-66
2023/10/23 07:12:25;;;;;;;4.07;2.00;;;10.60;62.50;;;;;;2280833;56;21009;-66
2023/10/23 07:14:51;;;;;;;3.78;1.87;;;10.60;62.50;;;;;;2281328;56;20946;-66
2023/10/23 07:17:18;;;;;;;4.15;2.12;;;10.70;62.80;;;;;;2514181;55;20982;-66
2023/10/23 07:19:45;;;;;;;4.00;1.92;;;10.70;62.80;;;;;;2281360;56;20946;-66
2023/10/23 07:22:12;;;;;;;4.03;1.85;;;10.70;62.90;;;;;;2514127;55;20967;-65
2023/10/23 07:24:38;;;;;;;3.87;1.92;;;10.80;63.00;;;;;;2281151;55;20903;-66
2023/10/23 07:27:05;;;;;;;4.12;1.87;;;10.80;63.10;;;;;;2514182;55;21080;-66
2023/10/23 07:29:32;;;;;;;4.30;1.98;;;10.90;63.20;;;;;;2513802;55;21491;-66
2023/10/23 07:32:00;;;;;;;5.25;1.80;;;10.90;63.20;;;;;;2281206;55;20961;-66
2023/10/23 07:34:26;;;;;;;4.37;2.05;;;11.00;63.30;;;;;;2280890;56;21037;-66
2023/10/23 07:36:52;;;;;;;4.10;1.98;;;11.10;63.40;;;;;;2513586;55;20938;-67
2023/10/23 07:39:23;;;;;;;3.28;1.70;;;11.10;63.40;;;;;;2281091;56;20970;-66
2023/10/23 07:41:49;;;;;;;4.00;1.98;;;11.20;63.50;;;;;;2281715;56;21077;-66
2023/10/23 07:44:16;;;;;;;3.30;1.70;;;11.20;63.40;;;;;;2280575;55;20942;-66
2023/10/23 07:46:46;;;;;;;5.62;1.70;;;11.30;63.40;;;;;;2281193;56;20986;-66
2023/10/23 07:49:12;;;;;;;3.42;1.65;;;11.30;63.40;;;;;;2514225;55;21034;-66
2023/10/23 07:51:38;;;;;;;3.72;2.08;;;11.40;63.40;;;;;;2514343;55;20938;-66
2023/10/23 07:54:06;;;;;;;4.65;2.00;;;11.40;63.40;;;;;;2513745;55;20958;-66
2023/10/23 07:56:32;;;;;;;2.67;1.50;;;11.50;63.50;;;;;;2280070;55;21507;-66
2023/10/23 07:58:59;;;;;;;3.62;1.60;;;11.50;63.50;;;;;;2281315;56;20926;-67
2023/10/23 08:01:25;;;;;;;4.80;1.40;;;11.60;63.60;;;;;;2513653;55;21456;-66
2023/10/23 08:03:51;;;;;;;2.60;1.40;;;11.60;63.50;;;;;;2281588;56;20978;-66
2023/10/23 08:06:18;;;;;;;3.75;1.65;;;11.70;63.70;;;;;;2280732;56;20974;-66
2023/10/23 08:08:45;;;;;;;3.33;1.42;;;11.70;63.70;;;;;;2514526;55;20942;-66
2023/10/23 08:11:12;;;;;;;3.40;1.60;;;11.80;63.80;;;;;;2514340;55;21010;-66
2023/10/23 08:13:39;;;;;;;3.05;1.60;;;11.80;63.80;;;;;;2281596;55;20950;-66
2023/10/23 08:16:06;;;;;;;2.95;1.30;;;11.90;63.90;;;;;;2280880;55;21670;-66
2023/10/23 08:18:34;;;;;;;4.37;1.85;;;11.90;63.90;;;;;;2281165;55;20982;-66
2023/10/23 08:21:09;;;;;;;3.85;1.87;;;12.00;64.00;;;;;;2506865;54;20935;-66
2023/10/23 08:23:35;;;;;;;6.55;2.37;;;12.00;64.00;;;;;;2513665;54;20970;-66
2023/10/23 08:26:03;;;;;;;5.75;2.78;;;12.10;64.00;;;;;;2281317;55;20962;-66
2023/10/23 08:28:29;;;;;;;4.65;2.62;;;12.10;64.00;;;;;;2513804;55;21523;-66
2023/10/23 08:31:02;;;;;;;4.90;2.75;;;12.20;64.10;;;;;;2281124;56;21093;-66
2023/10/23 08:33:28;;;;;;;6.43;3.00;;;12.20;64.00;;;;;;2513361;55;21046;-66
2023/10/23 08:35:55;;;;;;;6.25;2.70;;;12.30;64.00;;;;;;2514520;54;20959;-66
2023/10/23 08:38:21;;;;;;;5.80;2.60;;;12.30;63.90;;;;;;2281083;56;21730;-66
2023/10/23 08:40:48;;;;;;;4.22;2.20;;;12.30;63.90;;;;;;2281470;55;20954;-66
2023/10/23 08:43:14;;;;;;;4.97;2.30;;;12.40;64.00;;;;;;2513844;55;21405;-68
2023/10/23 08:45:40;;;;;;;5.82;2.28;;;12.40;64.00;;;;;;2281425;55;20938;-66
2023/10/23 08:48:06;;;;;;;6.00;2.55;;;12.50;64.00;;;;;;2281287;55;21006;-66
2023/10/23 08:50:33;;;;;;;5.60;2.53;;;12.50;64.00;;;;;;2281251;55;21913;-66
2023/10/23 08:53:00;;;;;;;5.57;2.35;;;12.50;64.00;;;;;;2281701;56;21061;-66
2023/10/23 08:55:27;;;;;;;3.90;1.92;;;12.60;64.10;;;;;;2508096;55;20939;-66
2023/10/23 08:57:55;;;;;;;5.25;2.50;;;12.60;64.10;;;;;;2510487;54;20990;-66
2023/10/23 09:00:24;;;;;;;4.78;2.53;;;12.70;64.10;;;;;;2513754;55;21001;-67
2023/10/23 09:02:50;;;;;;;4.53;2.58;;;12.70;64.10;;;;;;2514393;55;21356;-66
2023/10/23 09:05:17;;;;;;;3.97;1.90;;;12.80;64.20;;;;;;2280901;56;21539;-66
2023/10/23 09:07:44;;;;;;;3.95;2.08;;;12.80;64.10;;;;;;2283018;55;21071;-66
2023/10/23 09:10:11;;;;;;;6.32;2.58;;;12.80;64.00;;;;;;2274178;54;20950;-66
2023/10/23 09:12:39;;;;;;;6.72;2.33;;;12.90;64.10;;;;;;2280352;55;20962;-66
2023/10/23 09:15:23;;;;;;;5.05;2.45;;;12.90;64.10;;;;;;2513690;55;21838;-66
2023/10/23 09:17:50;;;;;;;4.18;2.08;;;13.00;64.10;;;;;;2514752;55;20994;-66
2023/10/23 09:20:24;;;;;;;3.80;2.00;;;13.00;64.10;;;;;;2280267;55;20957;-66
2023/10/23 09:22:52;;;;;;;5.47;2.00;;;13.00;64.10;;;;;;2282019;56;20942;-66
2023/10/23 09:25:20;;;;;;;3.78;1.67;;;13.10;64.20;;;;;;2514070;54;21065;-66
2023/10/23 09:27:46;;;;;;;3.95;1.90;;;13.10;64.20;;;;;;2281479;55;20974;-66
2023/10/23 09:30:15;;;;;;;4.65;2.15;;;13.20;64.20;;;;;;2281293;55;22578;-66
2023/10/23 09:32:43;;;;;;;4.50;2.10;;;13.20;64.10;;;;;;2281583;56;21013;-66
2023/10/23 09:35:11;;;;;;;7.07;2.40;;;13.20;64.00;;;;;;2281252;56;21005;-66
2023/10/23 09:37:39;;;;;;;6.15;2.70;;;13.30;64.10;;;;;;2513870;55;20954;-66
2023/10/23 09:40:09;;;;;;;4.10;2.12;;;13.30;64.10;;;;;;2511568;55;21335;-66
2023/10/23 09:42:36;;;;;;;4.78;2.10;;;13.30;64.00;;;;;;2508176;55;21586;-66
2023/10/23 09:45:04;;;;;;;5.47;2.17;;;13.30;64.10;;;;;;2281115;55;20968;-67
2023/10/23 09:47:35;;;;;;;3.33;1.80;;;13.40;64.10;;;;;;2280745;55;20958;-66
2023/10/23 09:50:03;;;;;;;4.12;2.10;;;13.40;64.00;;;;;;2513040;55;21551;-66
2023/10/23 09:52:34;;;;;;;4.25;2.33;;;13.40;64.10;;;;;;2280006;56;20946;-66
2023/10/23 09:55:05;;;;;;;4.20;2.37;;;13.40;64.20;;;;;;2514174;55;21005;-66
2023/10/23 09:57:44;;;;;;;4.62;2.50;;;13.50;64.20;;;;;;2280835;56;21013;-66
2023/10/23 10:00:14;;;;;;;4.45;2.30;;;13.50;64.30;;;;;;2514042;55;20914;-66
2023/10/23 10:02:56;;;;;;;3.78;2.25;;;13.50;64.30;;;;;;2281542;56;20961;-66
2023/10/23 10:07:20;;;;;;;5.77;2.87;;;13.60;64.50;;;;;;2508830;55;21508;-66
2023/10/23 10:09:47;;;;;;;4.47;2.30;;;13.70;64.20;;;;;;2280524;56;21006;-66
2023/10/23 10:12:13;;;;;;;5.07;2.70;;;13.70;64.50;;;;;;2280192;55;20934;-66
2023/10/23 10:14:40;;;;;;;4.18;2.47;;;13.70;64.60;;;;;;2281172;55;21806;-66
2023/10/23 10:17:06;;;;;;;4.05;2.10;;;13.80;64.70;;;;;;2280508;56;20950;-66
2023/10/23 10:19:33;;;;;;;4.22;2.28;;;13.80;64.70;;;;;;2513677;55;21045;-66
2023/10/23 10:22:17;;;;;;;4.62;2.42;;;13.90;64.70;;;;;;2280726;55;20969;-66
2023/10/23 10:24:44;;;;;;;3.87;1.75;;;14.00;64.70;;;;;;2513967;55;20961;-66
2023/10/23 10:27:10;;;;;;;11.25;2.47;;;14.00;64.70;;;;;;2280651;55;20990;-66
2023/10/23 10:29:37;;;;;;;4.10;1.65;;;14.10;64.60;;;;;;2514096;55;21514;-67
2023/10/23 10:32:05;;;;;;;3.90;1.73;;;14.10;64.60;;;;;;2281071;56;20965;-66
2023/10/23 10:35:01;;;;;;;4.15;1.90;;;14.10;64.50;;;;;;2280873;55;20946;-66
2023/10/23 10:37:31;;;;;;;4.93;1.98;;;14.20;64.40;;;;;;2506336;54;21344;-66
2023/10/23 10:40:06;;;;;;;3.92;1.60;;;14.20;64.40;;;;;;2280438;55;21569;-67
2023/10/23 10:42:38;;;;;;;5.82;2.00;;;14.30;64.40;;;;;;2280372;56;21049;-67
2023/10/23 10:45:14;;;;;;;8.95;3.28;;;14.30;64.30;;;;;;2513979;54;20974;-67
2023/10/23 10:47:45;;;;;;;6.25;3.10;;;14.40;64.10;;;;;;2514339;55;21751;-67
2023/10/23 10:50:12;;;;;;;4.90;2.67;;;14.40;64.00;;;;;;2514237;54;20950;-67
2023/10/23 10:52:40;;;;;;;4.35;2.35;;;14.40;64.00;;;;;;2281488;55;21017;-67
2023/10/23 10:55:08;;;;;;;4.55;2.03;;;14.40;64.10;;;;;;2281604;56;21041;-67
2023/10/23 10:57:38;;;;;;;5.90;2.12;;;14.50;64.20;;;;;;2280837;56;20966;-67
2023/10/23 11:00:06;;;;;;;3.58;1.80;;;14.40;64.10;;;;;;2513986;55;20942;-67
2023/10/23 11:02:32;;;;;;;3.85;1.85;;;14.40;64.20;;;;;;2279586;55;20962;-67
2023/10/23 11:04:59;;;;;;;3.33;1.52;;;14.50;64.20;;;;;;2281040;56;21006;-67
2023/10/23 11:07:26;;;;;;;3.83;1.90;;;14.50;64.20;;;;;;2513630;55;21033;-67
2023/10/23 11:09:52;;;;;;;5.30;2.40;;;14.50;64.20;;;;;;2506313;54;21448;-67
2023/10/23 11:12:19;;;;;;;4.18;1.98;;;14.50;64.10;;;;;;2280235;55;20934;-67
2023/10/23 11:14:46;;;;;;;4.85;2.12;;;14.50;64.10;;;;;;2281698;56;21399;-67
2023/10/23 11:17:13;;;;;;;5.40;2.17;;;14.50;64.10;;;;;;2512589;55;21037;-66
2023/10/23 11:19:42;;;;;;;4.97;2.35;;;14.50;64.10;;;;;;2270886;55;20985;-67
2023/10/23 11:22:15;;;;;;;3.37;1.60;;;14.60;64.20;;;;;;2276946;55;20963;-67
2023/10/23 11:24:43;;;;;;;3.60;1.67;;;14.60;64.20;;;;;;2281327;55;21038;-67
2023/10/23 11:27:09;;;;;;;4.05;2.15;;;14.60;64.30;;;;;;2281503;56;20966;-68
2023/10/23 11:29:46;;;;;;;4.40;1.98;;;14.60;64.30;;;;;;2280980;55;21030;-67
2023/10/23 11:32:15;;;;;;;3.62;1.80;;;14.60;64.30;;;;;;2283768;56;21424;-67
2023/10/23 11:34:42;;;;;;;3.78;1.80;;;14.60;64.40;;;;;;2277827;54;20974;-67
2023/10/23 11:37:09;;;;;;;3.67;1.58;;;14.70;64.60;;;;;;2274578;54;20950;-67
2023/10/23 11:39:36;;;;;;;6.72;4.50;;;14.70;64.60;;;;;;2280946;55;21393;-67
2023/10/23 11:42:04;;;;;;;9.90;3.70;;;14.70;64.60;;;;;;2281429;56;21094;-67
2023/10/23 11:44:34;;;;;;;4.47;2.70;;;14.80;64.50;;;;;;2280431;55;21483;-68
2023/10/23 11:47:04;;;;;;;5.40;2.45;;;14.80;64.40;;;;;;2280952;56;21054;-67
2023/10/23 11:49:34;;;;;;;5.22;2.10;;;14.80;64.20;;;;;;2513728;55;20974;-67
2023/10/23 11:52:02;;;;;;;4.62;2.00;;;14.80;64.20;;;;;;2514156;55;21338;-67
2023/10/23 11:54:28;;;;;;;3.60;1.85;;;14.80;64.20;;;;;;2280581;56;20970;-68
2023/10/23 11:56:56;;;;;;;3.72;1.80;;;14.80;64.30;;;;;;2513723;55;20922;-67
2023/10/23 11:59:25;;;;;;;3.00;1.60;;;14.80;64.30;;;;;;2280221;55;21018;-67
2023/10/23 12:01:54;;;;;;;4.37;2.35;;;14.90;64.40;;;;;;2281641;55;20994;-67
2023/10/23 12:04:22;;;;;;;5.05;2.17;;;14.90;64.30;;;;;;2281042;55;20994;-67
2023/10/23 12:06:48;;;;;;;5.75;2.00;;;14.90;64.30;;;;;;2514142;55;20978;-67
2023/10/23 12:09:14;;;;;;;4.12;1.92;;;14.90;64.20;;;;;;2514094;55;21000;-67
2023/10/23 12:11:40;;;;;;;3.62;1.98;;;14.90;64.30;;;;;;2514076;55;20947;-67
2023/10/23 12:14:07;;;;;;;3.65;1.98;;;15.00;65.20;;;;;;2280963;56;20958;-67
2023/10/23 12:16:38;;;;;;;5.30;2.30;;;14.90;64.50;;;;;;2513823;55;21014;-68
2023/10/23 12:19:04;;;;;;;5.20;2.33;;;14.90;64.40;;;;;;2513856;55;20990;-67
2023/10/23 12:21:30;;;;;;;5.40;2.45;;;15.00;64.60;;;;;;2281090;56;21329;-68
2023/10/23 12:23:57;;;;;;;5.05;2.03;;;15.00;64.70;;;;;;2281667;55;20998;-67
2023/10/23 12:26:23;;;;;;;5.28;2.22;;;15.00;64.80;;;;;;2513284;54;20961;-67
2023/10/23 12:28:51;;;;;;;3.90;2.05;;;15.00;64.90;;;;;;2281816;55;21026;-65
2023/10/23 12:31:18;;;;;;;5.18;2.50;;;15.10;64.90;;;;;;2281753;56;20962;-68
2023/10/23 12:33:44;;;;;;;4.78;2.70;;;15.00;64.70;;;;;;2281850;56;20962;-68
2023/10/23 12:36:13;;;;;;;6.00;3.35;;;15.20;64.70;;;;;;2280045;55;20959;-67
2023/10/23 12:38:41;;;;;;;5.47;3.50;;;15.10;64.40;;;;;;2510033;54;21475;-68
2023/10/23 12:41:09;;;;;;;6.82;3.35;;;15.10;64.30;;;;;;2514297;55;21037;-67
2023/10/23 12:43:35;;;;;;;4.43;2.80;;;15.10;64.30;;;;;;2280938;56;20965;-67
2023/10/23 12:46:01;;;;;;;5.10;2.95;;;15.10;64.30;;;;;;2281343;56;20929;-67
2023/10/23 12:48:28;;;;;;;4.50;2.42;;;15.10;64.40;;;;;;2280469;55;21038;-67
2023/10/23 12:50:58;;;;;;;6.12;3.10;;;15.10;64.70;;;;;;2281382;55;20941;-68